createdAt,value
2023-05-19T00:00:15.640Z,12.60
2023-05-19T00:02:44.119Z,12.83
2023-05-19T00:05:13.085Z,12.68
2023-05-19T00:07:40.117Z,12.88
2023-05-19T00:10:07.482Z,13.12
2023-05-19T00:12:34.865Z,13.11
2023-05-19T00:15:01.655Z,13.05
2023-05-19T00:17:31.322Z,12.97
2023-05-19T00:19:58.070Z,13.11
2023-05-19T00:22:28.123Z,13.04
2023-05-19T00:24:55.134Z,13.19
2023-05-19T00:27:21.877Z,13.31
2023-05-19T00:29:48.472Z,13.18
2023-05-19T00:32:15.995Z,12.78
2023-05-19T00:34:45.478Z,12.85
2023-05-19T00:37:12.077Z,13.07
2023-05-19T00:39:38.689Z,13.17
2023-05-19T00:42:07.725Z,13.14
2023-05-19T00:44:34.510Z,13.27
2023-05-19T00:47:01.452Z,13.24
2023-05-19T00:49:30.438Z,13.23
2023-05-19T00:51:57.844Z,13.21
2023-05-19T00:54:27.401Z,13.28
2023-05-19T00:56:59.189Z,13.25
2023-05-19T00:59:28.505Z,13.29
2023-05-19T01:01:57.802Z,13.27
2023-05-19T01:04:27.917Z,13.22
2023-05-19T01:06:56.938Z,13.24
2023-05-19T01:09:25.941Z,12.98
2023-05-19T01:11:57.285Z,12.93
2023-05-19T01:14:24.018Z,12.83
2023-05-19T01:16:55.127Z,12.97
2023-05-19T01:19:27.914Z,12.92
2023-05-19T01:22:03.635Z,13.00
2023-05-19T01:24:47.572Z,13.09
2023-05-19T01:27:32.861Z,13.03
2023-05-19T01:30:18.366Z,13.00
2023-05-19T01:32:46.966Z,12.95
2023-05-19T01:35:21.862Z,12.86
2023-05-19T01:37:50.627Z,12.94
2023-05-19T01:40:21.633Z,13.06
2023-05-19T01:42:49.447Z,13.12
2023-05-19T01:45:16.708Z,13.10
2023-05-19T01:47:46.700Z,13.02
2023-05-19T01:50:16.070Z,13.09
2023-05-19T01:52:42.766Z,13.08
2023-05-19T01:55:09.936Z,12.89
2023-05-19T01:58:01.388Z,12.89
2023-05-19T02:00:43.290Z,13.00
2023-05-19T02:03:40.562Z,13.03
2023-05-19T02:06:16.186Z,13.07
2023-05-19T02:09:07.929Z,13.04
2023-05-19T02:11:40.346Z,12.99
2023-05-19T02:14:18.325Z,12.81
2023-05-19T02:16:50.352Z,12.74
2023-05-19T02:19:30.423Z,12.80
2023-05-19T02:21:57.101Z,12.91
2023-05-19T02:24:24.011Z,12.75
2023-05-19T02:26:53.973Z,12.71
2023-05-19T02:29:25.867Z,12.78
2023-05-19T02:31:55.337Z,12.78
2023-05-19T02:34:22.186Z,12.65
2023-05-19T02:36:53.836Z,12.62
2023-05-19T02:39:23.218Z,12.45
2023-05-19T02:41:52.081Z,12.25
2023-05-19T02:44:18.728Z,12.18
2023-05-19T02:46:52.719Z,12.46
2023-05-19T02:49:22.482Z,12.56
2023-05-19T02:51:49.062Z,12.65
2023-05-19T02:54:20.625Z,12.76
2023-05-19T02:56:47.514Z,12.74
2023-05-19T02:59:16.553Z,12.76
2023-05-19T03:01:47.783Z,12.87
2023-05-19T03:04:20.060Z,12.79
2023-05-19T03:06:49.192Z,12.66
2023-05-19T03:09:18.172Z,12.63
2023-05-19T03:11:47.019Z,12.74
2023-05-19T03:14:15.737Z,12.56
2023-05-19T03:16:42.725Z,12.67
2023-05-19T03:19:12.259Z,12.64
2023-05-19T03:21:39.203Z,12.65
2023-05-19T03:24:06.762Z,12.55
2023-05-19T03:26:38.418Z,12.55
2023-05-19T03:29:05.134Z,12.49
2023-05-19T03:31:31.840Z,12.28
2023-05-19T03:33:58.581Z,12.19
2023-05-19T03:36:26.245Z,12.25
2023-05-19T03:38:55.251Z,12.28
2023-05-19T03:41:22.279Z,12.35
2023-05-19T03:43:49.916Z,12.41
2023-05-19T03:46:18.860Z,12.41
2023-05-19T03:48:47.883Z,12.53
2023-05-19T03:51:14.534Z,12.55
2023-05-19T03:53:41.438Z,12.53
2023-05-19T03:56:08.929Z,12.66
2023-05-19T03:58:37.075Z,12.72
2023-05-19T04:01:03.694Z,12.73
2023-05-19T04:03:32.440Z,12.68
2023-05-19T04:06:06.882Z,12.51
2023-05-19T04:08:33.688Z,12.42
2023-05-19T04:11:04.316Z,12.45
2023-05-19T04:13:36.740Z,12.68
2023-05-19T04:16:06.131Z,12.75
2023-05-19T04:18:32.835Z,12.71
2023-05-19T04:20:59.415Z,12.89
2023-05-19T04:23:26.462Z,12.89
2023-05-19T04:25:57.138Z,12.89
2023-05-19T04:28:24.026Z,12.82
2023-05-19T04:30:50.668Z,13.06
2023-05-19T04:33:17.878Z,13.12
2023-05-19T04:35:44.564Z,12.91
2023-05-19T04:38:12.591Z,12.79
2023-05-19T04:40:42.891Z,12.69
2023-05-19T04:43:14.322Z,12.80
2023-05-19T04:45:46.597Z,12.87
2023-05-19T04:48:13.956Z,13.09
2023-05-19T04:50:43.138Z,13.13
2023-05-19T04:53:12.114Z,13.21
2023-05-19T04:55:40.981Z,13.25
2023-05-19T04:58:10.306Z,13.15
2023-05-19T05:00:39.935Z,13.14
2023-05-19T05:03:09.057Z,13.21
2023-05-19T05:05:35.755Z,13.44
2023-05-19T05:08:07.216Z,13.51
2023-05-19T05:10:34.082Z,13.61
2023-05-19T05:13:02.002Z,13.52
2023-05-19T05:15:29.922Z,13.68
2023-05-19T05:17:56.983Z,13.78
2023-05-19T05:20:26.540Z,13.82
2023-05-19T05:22:53.481Z,13.71
2023-05-19T05:25:20.719Z,13.87
2023-05-19T05:27:47.368Z,14.04
2023-05-19T05:30:14.190Z,14.18
2023-05-19T05:32:43.356Z,14.30
2023-05-19T05:35:15.135Z,14.14
2023-05-19T05:37:41.729Z,14.23
2023-05-19T05:40:11.188Z,14.16
2023-05-19T05:42:37.759Z,14.33
2023-05-19T05:45:04.803Z,14.47
2023-05-19T05:47:34.129Z,14.40
2023-05-19T05:50:04.417Z,14.49
2023-05-19T05:52:35.578Z,14.72
2023-05-19T05:55:02.624Z,14.85
2023-05-19T05:57:31.459Z,15.15
2023-05-19T06:00:00.350Z,14.91
2023-05-19T06:02:31.783Z,15.03
2023-05-19T06:04:58.708Z,14.97
2023-05-19T06:07:25.458Z,15.07
2023-05-19T06:09:54.426Z,15.00
2023-05-19T06:12:22.991Z,14.55
2023-05-19T06:14:49.682Z,14.44
2023-05-19T06:17:18.685Z,14.74
2023-05-19T06:19:50.174Z,14.71
2023-05-19T06:22:21.728Z,14.83
2023-05-19T06:24:48.538Z,14.89
2023-05-19T06:27:15.221Z,14.92
2023-05-19T06:29:41.943Z,14.95
2023-05-19T06:32:08.561Z,15.14
2023-05-19T06:34:38.411Z,15.23
2023-05-19T06:37:04.996Z,15.37
2023-05-19T06:39:34.114Z,15.40
2023-05-19T06:42:00.775Z,15.56
2023-05-19T06:44:27.497Z,15.59
2023-05-19T06:46:58.905Z,15.61
2023-05-19T06:49:30.732Z,15.60
2023-05-19T06:52:02.393Z,15.53
2023-05-19T06:54:29.030Z,15.84
2023-05-19T06:56:55.758Z,16.04
2023-05-19T06:59:27.118Z,16.11
2023-05-19T07:01:53.725Z,16.14
2023-05-19T07:04:23.837Z,16.19
2023-05-19T07:06:50.462Z,16.21
2023-05-19T07:09:17.249Z,16.26
2023-05-19T07:11:44.337Z,16.40
2023-05-19T07:14:15.454Z,16.55
2023-05-19T07:16:44.401Z,16.62
2023-05-19T07:19:11.076Z,16.69
2023-05-19T07:21:40.142Z,16.60
2023-05-19T07:24:07.081Z,16.84
2023-05-19T07:26:33.731Z,17.00
2023-05-19T07:29:00.475Z,17.04
2023-05-19T07:31:27.118Z,17.06
2023-05-19T07:33:56.978Z,17.14
2023-05-19T07:36:23.676Z,17.19
2023-05-19T07:38:55.136Z,17.24
2023-05-19T07:41:21.873Z,17.19
2023-05-19T07:43:50.846Z,17.20
2023-05-19T07:46:17.563Z,17.07
2023-05-19T07:48:44.345Z,16.77
2023-05-19T07:51:12.500Z,16.57
2023-05-19T07:53:39.152Z,17.09
2023-05-19T07:56:08.124Z,17.37
2023-05-19T07:58:34.944Z,17.46
2023-05-19T08:01:01.757Z,17.47
2023-05-19T08:03:30.667Z,17.62
2023-05-19T08:06:02.921Z,17.84
2023-05-19T08:08:29.556Z,18.07
2023-05-19T08:10:58.420Z,18.29
2023-05-19T08:13:26.954Z,18.49
2023-05-19T08:15:59.549Z,18.54
2023-05-19T08:18:28.732Z,18.57
2023-05-19T08:20:56.167Z,18.70
2023-05-19T08:23:22.839Z,18.37
2023-05-19T08:25:52.347Z,18.19
2023-05-19T08:28:18.959Z,18.08
2023-05-19T08:30:47.933Z,17.64
2023-05-19T08:33:17.523Z,17.60
2023-05-19T08:35:46.809Z,17.46
2023-05-19T08:38:13.578Z,17.52
2023-05-19T08:40:46.312Z,17.67
2023-05-19T08:43:13.164Z,17.55
2023-05-19T08:45:43.592Z,17.77
2023-05-19T08:48:13.103Z,17.83
2023-05-19T08:50:44.228Z,17.74
2023-05-19T08:53:32.556Z,17.98
2023-05-19T08:56:31.404Z,18.12
2023-05-19T08:59:00.506Z,18.28
2023-05-19T09:01:28.926Z,18.32
2023-05-19T09:03:58.607Z,18.43
2023-05-19T09:06:26.488Z,18.75
2023-05-19T09:08:57.962Z,18.87
2023-05-19T09:11:27.571Z,18.94
2023-05-19T09:13:56.612Z,19.03
2023-05-19T09:16:23.376Z,19.02
2023-05-19T09:19:01.412Z,19.05
2023-05-19T09:21:31.279Z,19.06
2023-05-19T09:23:59.280Z,18.96
2023-05-19T09:26:37.384Z,19.02
2023-05-19T09:29:17.063Z,19.06
2023-05-19T09:31:54.668Z,19.07
2023-05-19T09:34:25.060Z,19.11
2023-05-19T09:36:54.264Z,19.25
2023-05-19T09:39:23.232Z,19.28
2023-05-19T09:41:58.662Z,19.42
2023-05-19T09:44:29.817Z,19.35
2023-05-19T09:47:00.132Z,19.26
2023-05-19T09:49:32.846Z,19.03
2023-05-19T09:52:03.916Z,18.75
2023-05-19T09:54:32.517Z,18.91
2023-05-19T09:57:03.599Z,18.75
2023-05-19T09:59:33.464Z,18.96
2023-05-19T10:02:01.593Z,18.87
2023-05-19T10:04:30.144Z,18.81
2023-05-19T10:06:59.792Z,18.83
2023-05-19T10:09:30.615Z,18.64
2023-05-19T10:11:59.805Z,18.78
2023-05-19T10:14:31.224Z,19.21
2023-05-19T10:17:00.330Z,19.44
2023-05-19T10:19:28.910Z,19.71
2023-05-19T10:21:56.309Z,19.94
2023-05-19T10:24:23.050Z,19.92
2023-05-19T10:27:03.533Z,20.06
2023-05-19T10:29:33.473Z,19.97
2023-05-19T10:32:09.520Z,20.04
2023-05-19T10:35:16.252Z,19.91
2023-05-19T10:38:05.052Z,20.31
2023-05-19T10:40:39.039Z,20.37
2023-05-19T10:43:18.622Z,20.11
2023-05-19T10:45:51.672Z,19.90
2023-05-19T10:48:23.974Z,20.01
2023-05-19T10:50:57.158Z,20.19
2023-05-19T10:53:37.241Z,20.07
2023-05-19T10:56:04.504Z,20.58
2023-05-19T10:58:38.336Z,20.86
2023-05-19T11:01:11.683Z,20.63
2023-05-19T11:04:09.195Z,20.90
2023-05-19T11:06:36.451Z,21.12
2023-05-19T11:09:34.153Z,20.99
2023-05-19T11:12:06.958Z,20.99
2023-05-19T11:14:40.212Z,21.06
2023-05-19T11:17:18.129Z,21.09
2023-05-19T11:20:03.858Z,20.99
2023-05-19T11:22:30.592Z,21.20
2023-05-19T11:24:59.940Z,21.25
2023-05-19T11:27:33.307Z,21.42
2023-05-19T11:30:20.025Z,21.69
2023-05-19T11:32:49.728Z,21.85
2023-05-19T11:35:19.120Z,21.83
2023-05-19T11:37:50.561Z,21.80
2023-05-19T11:40:18.059Z,21.95
2023-05-19T11:42:45.640Z,21.79
2023-05-19T11:45:12.310Z,21.14
2023-05-19T11:47:59.727Z,20.79
2023-05-19T11:50:31.450Z,21.00
2023-05-19T11:53:00.531Z,20.99
2023-05-19T11:55:27.965Z,21.04
2023-05-19T11:58:05.203Z,21.35
2023-05-19T12:00:39.567Z,21.51
2023-05-19T12:03:07.514Z,21.24
2023-05-19T12:05:43.650Z,21.49
2023-05-19T12:08:13.444Z,21.51
2023-05-19T12:10:43.363Z,21.73
2023-05-19T12:13:12.745Z,22.07
2023-05-19T12:15:39.626Z,22.17
2023-05-19T12:18:06.791Z,22.31
2023-05-19T12:20:37.388Z,22.50
2023-05-19T12:23:09.306Z,22.77
2023-05-19T12:25:36.461Z,22.65
2023-05-19T12:28:08.080Z,22.38
2023-05-19T12:30:37.356Z,22.46
2023-05-19T12:33:04.546Z,22.64
2023-05-19T12:35:34.302Z,22.51
2023-05-19T12:38:04.998Z,22.73
2023-05-19T12:40:33.400Z,22.76
2023-05-19T12:43:02.467Z,22.71
2023-05-19T12:45:33.734Z,22.73
2023-05-19T12:48:04.339Z,22.63
2023-05-19T12:50:34.383Z,22.82
2023-05-19T12:53:03.814Z,22.66
2023-05-19T12:55:30.564Z,22.61
2023-05-19T12:57:59.481Z,22.59
2023-05-19T13:00:28.982Z,22.68
2023-05-19T13:03:05.226Z,22.81
2023-05-19T13:05:40.400Z,22.41
2023-05-19T13:08:08.977Z,22.62
2023-05-19T13:10:38.536Z,22.41
2023-05-19T13:13:05.919Z,22.63
2023-05-19T13:15:35.555Z,22.96
2023-05-19T13:18:04.352Z,22.94
2023-05-19T13:20:31.198Z,22.89
2023-05-19T13:23:00.417Z,22.86
2023-05-19T13:25:27.821Z,23.01
2023-05-19T13:27:59.336Z,23.12
2023-05-19T13:30:28.491Z,23.14
2023-05-19T13:32:56.419Z,23.22
2023-05-19T13:35:26.559Z,23.39
2023-05-19T13:37:55.418Z,23.25
2023-05-19T13:40:28.201Z,23.35
2023-05-19T13:42:59.838Z,23.13
2023-05-19T13:45:31.647Z,23.39
2023-05-19T13:48:00.996Z,23.67
2023-05-19T13:50:29.858Z,23.51
2023-05-19T13:52:58.770Z,23.50
2023-05-19T13:55:29.005Z,23.15
2023-05-19T13:57:58.180Z,22.92
2023-05-19T14:00:24.969Z,22.64
2023-05-19T14:02:51.636Z,22.70
2023-05-19T14:05:20.755Z,22.57
2023-05-19T14:08:43.439Z,22.26
2023-05-19T14:11:17.164Z,22.61
2023-05-19T14:14:03.558Z,22.68
2023-05-19T14:16:30.536Z,23.00
2023-05-19T14:18:57.288Z,23.17
2023-05-19T14:21:26.138Z,23.43
2023-05-19T14:23:55.218Z,23.61
2023-05-19T14:26:21.990Z,23.57
2023-05-19T14:28:51.449Z,23.56
2023-05-19T14:31:23.446Z,23.76
2023-05-19T14:33:54.231Z,23.73
2023-05-19T14:36:21.160Z,23.93
2023-05-19T14:45:15.386Z,23.75
2023-05-19T14:47:42.077Z,23.88
2023-05-19T14:50:08.904Z,23.89
2023-05-19T14:52:35.607Z,23.79
2023-05-19T14:55:02.457Z,23.72
2023-05-19T14:57:32.160Z,23.94
2023-05-19T14:59:58.729Z,23.77
2023-05-19T15:02:26.889Z,23.44
2023-05-19T15:04:57.261Z,23.60
2023-05-19T15:07:32.654Z,23.32
2023-05-19T15:13:42.093Z,23.52
2023-05-19T15:16:17.281Z,24.07
2023-05-19T15:18:51.541Z,23.52
2023-05-19T15:21:20.494Z,23.69
2023-05-19T15:23:49.351Z,23.12
2023-05-19T15:26:16.119Z,23.24
2023-05-19T15:28:43.127Z,24.00
2023-05-19T15:31:11.985Z,24.48
2023-05-19T15:33:41.190Z,24.76
2023-05-19T15:36:16.710Z,24.56
2023-05-19T15:38:52.988Z,24.34
2023-05-19T15:41:22.090Z,25.16
2023-05-19T15:43:51.278Z,25.59
2023-05-19T15:46:20.178Z,25.99
2023-05-19T15:48:49.220Z,26.60
2023-05-19T15:51:16.136Z,25.85
2023-05-19T15:53:47.667Z,25.17
2023-05-19T15:56:14.511Z,25.35
2023-05-19T15:58:41.298Z,24.92
2023-05-19T16:01:08.574Z,23.91
2023-05-19T16:03:37.707Z,24.21
2023-05-19T16:06:04.664Z,23.91
2023-05-19T16:08:31.364Z,24.38
2023-05-19T16:10:58.086Z,24.59
2023-05-19T16:13:26.943Z,24.36
2023-05-19T16:15:54.011Z,24.36
2023-05-19T16:18:23.791Z,24.09
2023-05-19T16:20:56.064Z,23.69
2023-05-19T16:23:24.630Z,23.67
2023-05-19T16:25:51.252Z,23.67
2023-05-19T16:28:22.448Z,23.76
2023-05-19T16:30:50.454Z,23.53
2023-05-19T16:33:17.145Z,23.43
2023-05-19T16:35:46.270Z,23.08
2023-05-19T16:38:15.192Z,22.98
2023-05-19T16:40:44.790Z,22.73
2023-05-19T16:43:14.184Z,22.62
2023-05-19T16:45:50.617Z,22.45
2023-05-19T16:48:17.451Z,22.32
2023-05-19T16:50:44.090Z,22.13
2023-05-19T16:53:15.421Z,22.28
2023-05-19T16:55:42.002Z,22.29
2023-05-19T16:58:11.907Z,22.07
2023-05-19T17:00:38.706Z,21.95
2023-05-19T17:03:05.584Z,22.02
2023-05-19T17:05:32.224Z,21.86
2023-05-19T17:07:58.906Z,21.81
2023-05-19T17:10:27.800Z,21.89
2023-05-19T17:12:59.290Z,21.72
2023-05-19T17:15:28.088Z,21.68
2023-05-19T17:17:54.795Z,21.67
2023-05-19T17:20:21.432Z,21.63
2023-05-19T17:22:50.577Z,21.54
2023-05-19T17:25:19.989Z,21.60
2023-05-19T17:27:46.569Z,21.51
2023-05-19T17:30:16.342Z,21.39
2023-05-19T17:32:45.302Z,21.37
2023-05-19T17:35:11.970Z,21.37
2023-05-19T17:37:38.549Z,21.40
2023-05-19T17:40:05.942Z,21.39
2023-05-19T17:42:36.298Z,21.39
2023-05-19T17:45:08.722Z,21.39
2023-05-19T17:47:35.334Z,21.15
2023-05-19T17:50:01.927Z,20.97
2023-05-19T17:52:28.934Z,21.03
2023-05-19T17:54:55.858Z,20.96
2023-05-19T17:57:30.577Z,20.70
2023-05-19T17:59:57.454Z,20.69
2023-05-19T18:02:24.294Z,20.76
2023-05-19T18:04:57.084Z,20.53
2023-05-19T18:07:27.655Z,20.45
2023-05-19T18:09:56.103Z,20.43
2023-05-19T18:12:22.825Z,20.32
2023-05-19T18:14:50.683Z,20.35
2023-05-19T18:17:19.805Z,20.31
2023-05-19T18:19:49.489Z,20.24
2023-05-19T18:22:21.284Z,20.16
2023-05-19T18:24:47.970Z,20.04
2023-05-19T18:27:14.534Z,19.85
2023-05-19T18:29:44.519Z,19.73
2023-05-19T18:32:17.671Z,19.62
2023-05-19T18:34:44.389Z,19.37
2023-05-19T18:37:13.619Z,19.04
2023-05-19T18:39:42.553Z,18.86
2023-05-19T18:42:09.192Z,18.90
2023-05-19T18:44:46.749Z,18.98
2023-05-19T18:47:14.192Z,18.99
2023-05-19T18:49:43.313Z,19.01
2023-05-19T18:52:09.957Z,18.87
2023-05-19T18:54:38.961Z,18.88
2023-05-19T18:57:05.845Z,18.84
2023-05-19T18:59:32.767Z,18.74
2023-05-19T19:02:01.926Z,18.68
2023-05-19T19:04:28.673Z,18.65
2023-05-19T19:06:55.253Z,18.42
2023-05-19T19:09:26.862Z,18.41
2023-05-19T19:11:57.074Z,18.38
2023-05-19T19:14:29.023Z,18.22
2023-05-19T19:16:56.173Z,18.15
2023-05-19T19:19:23.934Z,18.15
2023-05-19T19:21:50.687Z,18.17
2023-05-19T19:24:19.670Z,18.24
2023-05-19T19:26:46.300Z,18.08
2023-05-19T19:29:18.452Z,17.93
2023-05-19T19:31:47.507Z,18.00
2023-05-19T19:34:14.068Z,18.09
2023-05-19T19:36:40.994Z,18.13
2023-05-19T19:39:09.901Z,18.10
2023-05-19T19:41:41.220Z,17.99
2023-05-19T19:44:10.402Z,18.00
2023-05-19T19:46:42.250Z,18.01
2023-05-19T19:49:11.188Z,18.09
2023-05-19T19:51:37.686Z,18.09
2023-05-19T19:54:06.694Z,18.04
2023-05-19T19:56:33.754Z,18.19
2023-05-19T19:59:03.364Z,18.22
2023-05-19T20:01:33.623Z,18.03
2023-05-19T20:04:00.759Z,17.98
2023-05-19T20:06:27.410Z,17.96
2023-05-19T20:08:59.223Z,18.01
2023-05-19T20:11:30.724Z,17.97
2023-05-19T20:13:59.767Z,17.83
2023-05-19T20:16:28.834Z,17.92
2023-05-19T20:18:55.694Z,17.97
2023-05-19T20:21:24.819Z,17.84
2023-05-19T20:23:53.891Z,17.61
2023-05-19T20:26:25.360Z,17.70
2023-05-19T20:29:07.139Z,17.88
2023-05-19T20:31:38.523Z,17.79
2023-05-19T20:34:07.533Z,17.83
2023-05-19T20:36:46.028Z,17.73
2023-05-19T20:39:12.747Z,17.73
2023-05-19T20:41:39.409Z,17.61
2023-05-19T20:44:06.573Z,17.39
2023-05-19T20:46:33.203Z,17.42
2023-05-19T20:49:03.410Z,17.35
2023-05-19T20:51:30.069Z,17.45
2023-05-19T20:53:59.954Z,17.32
2023-05-19T20:56:28.719Z,17.40
2023-05-19T20:58:55.438Z,17.60
2023-05-19T21:01:22.074Z,17.69
2023-05-19T21:03:51.283Z,17.72
2023-05-19T21:06:17.979Z,17.50
2023-05-19T21:08:46.895Z,17.60
2023-05-19T21:11:13.576Z,17.53
2023-05-19T21:13:40.649Z,17.48
2023-05-19T21:16:07.964Z,17.48
2023-05-19T21:18:36.937Z,17.61
2023-05-19T21:21:04.205Z,17.70
2023-05-19T21:23:32.930Z,17.55
2023-05-19T21:26:02.160Z,17.34
2023-05-19T21:28:30.971Z,17.45
2023-05-19T21:30:57.568Z,17.45
2023-05-19T21:33:24.261Z,17.32
2023-05-19T21:35:51.014Z,17.55
2023-05-19T21:38:23.948Z,17.69
2023-05-19T21:40:55.973Z,17.66
2023-05-19T21:43:30.204Z,17.57
2023-05-19T21:45:56.916Z,17.55
2023-05-19T21:48:28.302Z,17.67
2023-05-19T21:50:57.787Z,17.68
2023-05-19T21:53:24.961Z,17.64
2023-05-19T21:55:54.247Z,17.47
2023-05-19T21:58:26.112Z,17.36
2023-05-19T22:00:54.545Z,17.22
2023-05-19T22:03:21.856Z,17.15
2023-05-19T22:05:52.427Z,17.28
2023-05-19T22:08:26.063Z,17.35
2023-05-19T22:10:55.909Z,17.29
2023-05-19T22:13:22.470Z,17.36
2023-05-19T22:15:49.175Z,17.26
2023-05-19T22:18:15.815Z,17.32
2023-05-19T22:20:44.920Z,17.40
2023-05-19T22:23:23.402Z,17.35
2023-05-19T22:25:55.340Z,17.36
2023-05-19T22:28:21.973Z,17.35
2023-05-19T22:30:53.540Z,17.43
2023-05-19T22:33:22.938Z,17.38
2023-05-19T22:35:52.574Z,17.36
2023-05-19T22:38:19.140Z,17.47
2023-05-19T22:40:49.654Z,17.55
2023-05-19T22:43:18.511Z,17.30
2023-05-19T22:45:45.092Z,17.22
2023-05-19T22:48:11.860Z,17.12
2023-05-19T22:50:38.567Z,17.20
2023-05-19T22:53:07.361Z,17.13
2023-05-19T22:55:36.621Z,17.27
2023-05-19T22:58:03.353Z,17.30
2023-05-19T23:00:32.838Z,17.39
2023-05-19T23:02:59.479Z,17.45
2023-05-19T23:05:28.459Z,17.44
2023-05-19T23:07:55.202Z,17.09
2023-05-19T23:10:24.185Z,17.12
2023-05-19T23:12:53.090Z,17.11
2023-05-19T23:15:20.196Z,17.00
2023-05-19T23:17:51.569Z,16.94
2023-05-19T23:20:20.625Z,16.85
2023-05-19T23:22:53.644Z,16.76
2023-05-19T23:25:22.633Z,16.76
2023-05-19T23:27:49.194Z,16.88
2023-05-19T23:30:15.979Z,16.90
2023-05-19T23:32:44.917Z,16.83
2023-05-19T23:35:18.564Z,16.83
2023-05-19T23:37:48.440Z,16.81
2023-05-19T23:40:18.385Z,16.72
2023-05-19T23:42:47.298Z,16.74
2023-05-19T23:45:13.821Z,16.63
2023-05-19T23:47:40.552Z,16.56
2023-05-19T23:50:07.367Z,16.58
2023-05-19T23:52:33.939Z,16.36
2023-05-19T23:55:00.605Z,16.32
2023-05-19T23:57:29.804Z,16.35
2023-05-19T23:59:56.787Z,16.25
